createdAt,value
2018-05-09T00:01:19.481Z,14.10
2018-05-09T00:03:47.896Z,14.00
2018-05-09T00:06:16.093Z,14.00
2018-05-09T00:08:43.563Z,14.00
2018-05-09T00:11:11.001Z,14.00
2018-05-09T00:13:38.439Z,14.00
2018-05-09T00:16:06.650Z,14.00
2018-05-09T00:18:34.076Z,13.90
2018-05-09T00:21:01.514Z,14.00
2018-05-09T00:23:29.045Z,14.00
2018-05-09T00:25:56.501Z,13.90
2018-05-09T00:28:23.943Z,13.90
2018-05-09T00:30:51.380Z,13.90
2018-05-09T00:33:18.820Z,13.90
2018-05-09T00:35:46.256Z,13.90
2018-05-09T00:38:14.598Z,13.80
2018-05-09T00:40:42.025Z,13.80
2018-05-09T00:43:09.469Z,13.80
2018-05-09T00:45:36.905Z,13.80
2018-05-09T00:48:05.106Z,13.70
2018-05-09T00:50:32.550Z,13.70
2018-05-09T00:52:59.985Z,13.60
2018-05-09T00:55:28.193Z,13.60
2018-05-09T00:57:55.625Z,13.60
2018-05-09T01:00:23.842Z,13.50
2018-05-09T01:02:51.289Z,13.50
2018-05-09T01:05:18.737Z,13.50
2018-05-09T01:07:46.173Z,13.50
2018-05-09T01:10:13.613Z,13.40
2018-05-09T01:12:41.821Z,13.40
2018-05-09T01:15:09.256Z,13.40
2018-05-09T01:17:37.463Z,13.40
2018-05-09T01:20:04.946Z,13.30
2018-05-09T01:22:32.402Z,13.30
2018-05-09T01:24:59.855Z,13.30
2018-05-09T01:27:27.284Z,13.30
2018-05-09T01:29:54.829Z,13.30
2018-05-09T01:32:22.253Z,13.20
2018-05-09T01:34:50.477Z,13.20
2018-05-09T01:37:17.906Z,13.20
2018-05-09T01:39:45.368Z,13.20
2018-05-09T01:42:12.815Z,13.10
2018-05-09T01:44:41.017Z,13.10
2018-05-09T01:47:08.448Z,13.10
2018-05-09T01:49:35.893Z,13.10
2018-05-09T01:52:04.090Z,13.00
2018-05-09T01:54:31.529Z,13.00
2018-05-09T01:56:59.733Z,13.00
2018-05-09T01:59:27.180Z,13.00
2018-05-09T02:01:54.625Z,13.00
2018-05-09T02:04:22.062Z,12.90
2018-05-09T02:06:50.283Z,12.90
2018-05-09T02:09:17.725Z,12.90
2018-05-09T02:11:45.154Z,12.90
2018-05-09T02:14:13.365Z,12.80
2018-05-09T02:16:40.872Z,12.80
2018-05-09T02:19:09.072Z,12.80
2018-05-09T02:21:36.518Z,12.80
2018-05-09T02:24:04.025Z,12.80
2018-05-09T02:26:32.164Z,12.80
2018-05-09T02:28:59.596Z,12.80
2018-05-09T02:31:27.804Z,12.80
2018-05-09T02:33:55.237Z,12.80
2018-05-09T02:36:22.687Z,12.80
2018-05-09T02:38:50.897Z,12.80
2018-05-09T02:41:18.352Z,12.70
2018-05-09T02:43:45.849Z,12.80
2018-05-09T02:46:13.230Z,12.70
2018-05-09T02:48:41.433Z,12.70
2018-05-09T02:51:08.886Z,12.60
2018-05-09T02:53:36.321Z,12.60
2018-05-09T02:56:03.776Z,12.60
2018-05-09T02:58:31.977Z,12.50
2018-05-09T03:00:59.426Z,12.50
2018-05-09T03:03:26.859Z,12.50
2018-05-09T03:05:55.089Z,12.40
2018-05-09T03:08:22.541Z,12.40
2018-05-09T03:10:50.749Z,12.30
2018-05-09T03:13:18.947Z,12.30
2018-05-09T03:15:46.398Z,12.30
2018-05-09T03:18:13.821Z,12.20
2018-05-09T03:20:41.270Z,12.20
2018-05-09T03:23:08.695Z,12.20
2018-05-09T03:25:36.151Z,12.20
2018-05-09T03:28:03.601Z,12.20
2018-05-09T03:30:31.051Z,12.10
2018-05-09T03:32:58.480Z,12.10
2018-05-09T03:35:26.753Z,12.10
2018-05-09T03:37:54.121Z,12.10
2018-05-09T03:40:21.552Z,12.10
2018-05-09T03:42:49.770Z,12.00
2018-05-09T03:45:17.226Z,12.00
2018-05-09T03:47:44.677Z,12.00
2018-05-09T03:50:12.109Z,12.00
2018-05-09T03:52:39.552Z,12.00
2018-05-09T03:55:07.752Z,11.90
2018-05-09T03:57:35.188Z,11.90
2018-05-09T04:00:03.390Z,11.90
2018-05-09T04:02:44.414Z,11.90
2018-05-09T04:05:23.689Z,11.90
2018-05-09T04:08:03.092Z,11.90
2018-05-09T04:10:31.293Z,11.80
2018-05-09T04:12:58.732Z,11.80
2018-05-09T04:15:26.961Z,11.70
2018-05-09T04:17:54.403Z,11.70
2018-05-09T04:20:21.879Z,11.70
2018-05-09T04:22:49.348Z,11.70
2018-05-09T04:25:16.791Z,11.70
2018-05-09T04:27:44.224Z,11.70
2018-05-09T04:30:11.660Z,11.70
2018-05-09T04:32:39.105Z,11.70
2018-05-09T04:35:07.296Z,11.70
2018-05-09T04:37:34.744Z,11.70
2018-05-09T04:40:02.229Z,11.70
2018-05-09T04:42:29.676Z,11.70
2018-05-09T04:44:57.109Z,11.80
2018-05-09T04:47:24.553Z,11.80
2018-05-09T04:49:52.759Z,11.80
2018-05-09T04:52:20.201Z,11.80
2018-05-09T04:54:47.642Z,11.90
2018-05-09T04:57:15.853Z,11.90
2018-05-09T04:59:43.308Z,11.90
2018-05-09T05:02:10.754Z,12.00
2018-05-09T05:04:38.184Z,12.10
2018-05-09T05:07:06.443Z,12.20
2018-05-09T05:09:33.819Z,12.20
2018-05-09T05:12:02.024Z,12.30
2018-05-09T05:14:29.487Z,12.40
2018-05-09T05:16:56.944Z,12.40
2018-05-09T05:19:24.387Z,12.50
2018-05-09T05:21:51.833Z,12.60
2018-05-09T05:24:19.264Z,12.70
2018-05-09T05:26:47.508Z,12.80
2018-05-09T05:29:14.969Z,12.80
2018-05-09T05:31:42.428Z,12.80
2018-05-09T05:34:10.636Z,13.00
2018-05-09T05:36:38.083Z,13.00
2018-05-09T05:39:06.293Z,13.20
2018-05-09T05:41:33.733Z,13.20
2018-05-09T05:44:01.171Z,13.30
2018-05-09T05:46:29.372Z,13.60
2018-05-09T05:48:56.838Z,13.60
2018-05-09T05:51:24.273Z,13.80
2018-05-09T05:53:51.717Z,14.00
2018-05-09T05:56:19.954Z,14.30
2018-05-09T05:58:47.401Z,14.20
2018-05-09T06:01:14.880Z,14.40
2018-05-09T06:03:42.332Z,14.50
2018-05-09T06:06:10.085Z,14.60
2018-05-09T06:08:37.605Z,14.80
2018-05-09T06:11:05.069Z,14.90
2018-05-09T06:13:32.604Z,15.00
2018-05-09T06:16:00.113Z,15.10
2018-05-09T06:18:27.562Z,15.20
2018-05-09T06:20:55.017Z,15.30
2018-05-09T06:23:22.460Z,15.30
2018-05-09T06:25:49.924Z,15.40
2018-05-09T06:28:17.454Z,15.50
2018-05-09T06:30:44.922Z,15.50
2018-05-09T06:33:12.396Z,15.60
2018-05-09T06:35:39.851Z,15.70
2018-05-09T06:38:07.302Z,15.80
2018-05-09T06:40:34.743Z,15.90
2018-05-09T06:43:02.175Z,15.90
2018-05-09T06:45:30.379Z,16.00
2018-05-09T06:47:57.834Z,16.00
2018-05-09T06:50:25.266Z,16.10
2018-05-09T06:52:53.464Z,16.30
2018-05-09T06:55:20.919Z,16.30
2018-05-09T06:57:48.346Z,16.30
2018-05-09T07:00:16.558Z,16.50
2018-05-09T07:02:43.994Z,16.50
2018-05-09T07:05:11.426Z,16.60
2018-05-09T07:07:39.620Z,16.70
2018-05-09T07:10:07.056Z,16.70
2018-05-09T07:12:35.306Z,16.90
2018-05-09T07:15:02.761Z,16.90
2018-05-09T07:17:30.200Z,17.00
2018-05-09T07:19:57.633Z,17.10
2018-05-09T07:22:25.061Z,17.20
2018-05-09T07:24:53.268Z,17.40
2018-05-09T07:27:20.710Z,17.40
2018-05-09T07:29:48.147Z,17.50
2018-05-09T07:32:16.350Z,17.60
2018-05-09T07:34:43.790Z,17.60
2018-05-09T07:37:11.224Z,17.70
2018-05-09T07:39:39.437Z,17.90
2018-05-09T07:42:06.873Z,17.90
2018-05-09T07:44:35.082Z,18.20
2018-05-09T07:47:02.537Z,18.20
2018-05-09T07:49:29.994Z,18.30
2018-05-09T07:51:57.437Z,18.40
2018-05-09T07:54:24.880Z,18.50
2018-05-09T07:56:52.313Z,18.60
2018-05-09T07:59:20.525Z,18.70
2018-05-09T08:01:47.965Z,18.70
2018-05-09T08:04:15.408Z,18.80
2018-05-09T08:06:43.644Z,19.00
2018-05-09T08:09:11.080Z,19.00
2018-05-09T08:11:38.583Z,19.10
2018-05-09T08:14:06.083Z,19.20
2018-05-09T08:16:33.574Z,19.30
2018-05-09T08:19:01.813Z,19.60
2018-05-09T08:21:29.332Z,19.60
2018-05-09T08:23:56.799Z,19.70
2018-05-09T08:26:25.031Z,20.00
2018-05-09T08:28:52.481Z,19.90
2018-05-09T08:31:19.935Z,20.10
2018-05-09T08:33:47.570Z,20.20
2018-05-09T08:36:15.083Z,20.30
2018-05-09T08:38:43.214Z,20.50
2018-05-09T08:41:10.649Z,20.50
2018-05-09T08:43:38.167Z,20.60
2018-05-09T08:46:05.540Z,20.70
2018-05-09T08:48:33.789Z,20.70
2018-05-09T08:51:01.232Z,20.70
2018-05-09T08:53:28.672Z,20.80
2018-05-09T08:55:56.122Z,20.90
2018-05-09T08:58:23.616Z,21.00
2018-05-09T09:00:51.064Z,21.10
2018-05-09T09:03:18.506Z,21.10
2018-05-09T09:05:45.958Z,21.20
2018-05-09T09:08:13.393Z,21.30
2018-05-09T09:10:41.596Z,21.40
2018-05-09T09:13:09.025Z,21.40
2018-05-09T09:15:36.500Z,21.40
2018-05-09T09:18:04.672Z,21.70
2018-05-09T09:20:32.125Z,21.60
2018-05-09T09:22:59.559Z,21.80
2018-05-09T09:25:28.589Z,22.00
2018-05-09T09:27:56.041Z,22.00
2018-05-09T09:30:23.500Z,22.20
2018-05-09T09:32:50.928Z,22.30
2018-05-09T09:35:18.410Z,22.40
2018-05-09T09:37:45.837Z,22.40
2018-05-09T09:40:14.056Z,22.60
2018-05-09T09:42:41.501Z,22.60
2018-05-09T09:45:08.935Z,22.70
2018-05-09T09:47:36.381Z,22.80
2018-05-09T09:52:36.576Z,23.00
2018-05-09T09:55:04.005Z,23.10
2018-05-09T09:57:31.461Z,23.20
2018-05-09T09:59:58.914Z,23.30
2018-05-09T10:02:26.383Z,23.40
2018-05-09T10:04:53.828Z,23.50
2018-05-09T10:07:21.265Z,23.60
2018-05-09T10:09:49.456Z,23.70
2018-05-09T10:12:16.897Z,23.70
2018-05-09T10:14:44.331Z,23.80
2018-05-09T10:17:12.572Z,24.00
2018-05-09T10:19:40.000Z,24.00
2018-05-09T10:22:07.445Z,24.00
2018-05-09T10:24:34.877Z,24.10
2018-05-09T10:27:03.094Z,24.20
2018-05-09T10:29:30.519Z,24.20
2018-05-09T10:31:58.723Z,24.30
2018-05-09T10:34:26.170Z,24.20
2018-05-09T10:36:53.600Z,24.30
2018-05-09T10:39:21.811Z,24.40
2018-05-09T10:41:49.257Z,24.30
2018-05-09T10:44:16.711Z,24.40
2018-05-09T10:46:44.148Z,24.40
2018-05-09T10:49:12.344Z,24.50
2018-05-09T10:51:39.789Z,24.50
2018-05-09T10:54:07.993Z,24.60
2018-05-09T10:56:35.437Z,24.60
2018-05-09T10:59:02.865Z,24.60
2018-05-09T11:01:31.073Z,24.70
2018-05-09T11:03:58.521Z,24.70
2018-05-09T11:06:25.981Z,24.70
2018-05-09T11:08:53.439Z,24.70
2018-05-09T11:11:20.901Z,24.70
2018-05-09T11:13:48.347Z,24.70
2018-05-09T11:16:15.823Z,24.70
2018-05-09T11:18:43.260Z,24.70
2018-05-09T11:21:10.688Z,24.80
2018-05-09T11:23:38.125Z,24.80
2018-05-09T11:26:05.568Z,24.80
2018-05-09T11:28:33.018Z,24.80
2018-05-09T11:31:00.456Z,24.80
2018-05-09T11:33:27.971Z,24.90
2018-05-09T11:35:56.085Z,24.90
2018-05-09T11:38:23.525Z,24.80
2018-05-09T11:40:51.751Z,24.90
2018-05-09T11:43:19.234Z,24.90
2018-05-09T11:45:46.660Z,24.90
2018-05-09T11:48:14.866Z,24.90
2018-05-09T11:50:42.297Z,24.90
2018-05-09T11:53:09.826Z,24.90
2018-05-09T11:55:37.178Z,24.90
2018-05-09T11:58:04.656Z,24.90
2018-05-09T12:00:32.681Z,25.00
2018-05-09T12:03:00.893Z,25.10
2018-05-09T12:05:28.328Z,25.00
2018-05-09T12:07:55.764Z,25.10
2018-05-09T12:10:24.071Z,25.10
2018-05-09T12:12:51.404Z,25.10
2018-05-09T12:15:19.606Z,25.20
2018-05-09T12:17:47.048Z,25.10
2018-05-09T12:20:14.485Z,25.20
2018-05-09T12:22:42.697Z,25.20
2018-05-09T12:25:10.128Z,25.20
2018-05-09T12:27:38.341Z,25.30
2018-05-09T12:30:05.890Z,25.30
2018-05-09T12:32:33.429Z,25.40
2018-05-09T12:35:01.622Z,25.40
2018-05-09T12:37:29.062Z,25.40
2018-05-09T12:39:56.493Z,25.40
2018-05-09T12:42:24.777Z,25.50
2018-05-09T12:44:52.208Z,25.50
2018-05-09T12:47:19.653Z,25.50
2018-05-09T12:49:47.100Z,25.60
2018-05-09T12:52:14.580Z,25.60
2018-05-09T12:54:42.036Z,25.60
2018-05-09T12:57:09.471Z,25.60
2018-05-09T12:59:36.907Z,25.60
2018-05-09T13:02:04.358Z,25.60
2018-05-09T13:04:32.566Z,25.70
2018-05-09T13:07:00.001Z,25.70
2018-05-09T13:09:27.438Z,25.70
2018-05-09T13:11:54.873Z,25.70
2018-05-09T13:14:23.085Z,25.80
2018-05-09T13:16:50.525Z,25.80
2018-05-09T13:19:18.765Z,25.90
2018-05-09T13:21:46.230Z,25.90
2018-05-09T13:24:13.677Z,26.00
2018-05-09T13:26:41.123Z,26.00
2018-05-09T13:29:08.590Z,26.10
2018-05-09T13:31:36.095Z,26.10
2018-05-09T13:34:03.526Z,26.10
2018-05-09T13:36:30.960Z,26.10
2018-05-09T13:38:59.313Z,26.10
2018-05-09T13:41:26.753Z,26.20
2018-05-09T13:43:54.196Z,26.20
2018-05-09T13:46:22.483Z,26.20
2018-05-09T13:48:49.873Z,26.20
2018-05-09T13:51:18.068Z,26.30
2018-05-09T13:53:45.513Z,26.30
2018-05-09T13:56:12.940Z,26.40
2018-05-09T13:58:40.380Z,26.40
2018-05-09T14:01:07.817Z,26.50
2018-05-09T14:03:36.121Z,26.60
2018-05-09T14:06:03.520Z,26.60
2018-05-09T14:08:31.728Z,26.60
2018-05-09T14:10:59.945Z,26.70
2018-05-09T14:13:27.377Z,26.70
2018-05-09T14:15:54.821Z,26.70
2018-05-09T14:18:23.071Z,26.70
2018-05-09T14:20:50.504Z,26.70
2018-05-09T14:23:17.957Z,26.70
2018-05-09T14:25:45.425Z,26.60
2018-05-09T14:28:12.861Z,26.50
2018-05-09T14:30:40.312Z,26.50
2018-05-09T14:33:07.821Z,26.50
2018-05-09T14:35:35.286Z,26.40
2018-05-09T14:38:03.512Z,26.10
2018-05-09T14:40:30.952Z,26.10
2018-05-09T14:42:58.384Z,26.00
2018-05-09T14:45:26.592Z,25.70
2018-05-09T14:47:54.062Z,25.70
2018-05-09T14:50:21.508Z,25.60
2018-05-09T14:52:49.825Z,25.40
2018-05-09T14:55:17.288Z,25.40
2018-05-09T14:57:44.760Z,25.30
2018-05-09T15:00:13.063Z,25.30
2018-05-09T15:02:40.458Z,25.30
2018-05-09T15:05:09.444Z,25.30
2018-05-09T15:07:36.880Z,25.30
2018-05-09T15:10:04.320Z,25.20
2018-05-09T15:12:31.769Z,25.20
2018-05-09T15:14:59.997Z,25.10
2018-05-09T15:17:27.441Z,25.10
2018-05-09T15:19:54.884Z,25.10
2018-05-09T15:22:22.321Z,25.00
2018-05-09T15:24:50.605Z,25.00
2018-05-09T15:27:17.991Z,25.00
2018-05-09T15:29:45.484Z,25.00
2018-05-09T15:32:12.918Z,24.90
2018-05-09T15:34:40.365Z,24.90
2018-05-09T15:37:07.812Z,24.80
2018-05-09T15:39:35.259Z,24.80
2018-05-09T15:42:02.706Z,24.80
2018-05-09T15:44:30.405Z,24.70
2018-05-09T15:46:57.881Z,24.70
2018-05-09T15:49:26.091Z,24.60
2018-05-09T15:51:53.553Z,24.60
2018-05-09T15:54:20.984Z,24.50
2018-05-09T15:56:49.207Z,24.50
2018-05-09T15:59:16.724Z,24.50
2018-05-09T16:01:44.934Z,24.40
2018-05-09T16:04:12.381Z,24.40
2018-05-09T16:06:39.868Z,24.40
2018-05-09T16:09:07.510Z,24.40
2018-05-09T16:11:34.970Z,24.30
2018-05-09T16:14:02.409Z,24.30
2018-05-09T16:16:29.849Z,24.30
2018-05-09T16:18:58.454Z,24.20
2018-05-09T16:21:25.927Z,24.20
2018-05-09T16:23:53.374Z,24.20
2018-05-09T16:26:20.816Z,24.20
2018-05-09T16:28:49.014Z,24.10
2018-05-09T16:31:16.662Z,24.10
2018-05-09T16:33:44.105Z,24.10
2018-05-09T16:36:13.270Z,24.10
2018-05-09T16:38:40.710Z,24.10
2018-05-09T16:41:08.151Z,24.10
2018-05-09T16:43:35.608Z,24.00
2018-05-09T16:46:03.070Z,24.00
2018-05-09T16:48:30.503Z,24.00
2018-05-09T16:50:57.952Z,24.00
2018-05-09T16:53:25.386Z,24.00
2018-05-09T16:55:53.596Z,24.00
2018-05-09T16:58:21.039Z,23.90
2018-05-09T17:00:48.477Z,23.90
2018-05-09T17:03:16.683Z,23.80
2018-05-09T17:05:44.161Z,23.80
2018-05-09T17:08:12.477Z,23.70
2018-05-09T17:10:40.059Z,23.70
2018-05-09T17:13:08.628Z,23.60
2018-05-09T17:15:36.834Z,23.70
2018-05-09T17:18:04.313Z,23.60
2018-05-09T17:20:31.765Z,23.60
2018-05-09T17:22:59.233Z,23.60
2018-05-09T17:25:26.664Z,23.60
2018-05-09T17:27:54.111Z,23.60
2018-05-09T17:30:21.566Z,23.50
2018-05-09T17:32:49.752Z,23.50
2018-05-09T17:35:17.208Z,23.50
2018-05-09T17:37:44.650Z,23.40
2018-05-09T17:40:12.130Z,23.40
2018-05-09T17:42:39.660Z,23.30
2018-05-09T17:45:07.018Z,23.30
2018-05-09T17:47:34.456Z,23.20
2018-05-09T17:50:02.658Z,23.10
2018-05-09T17:52:30.096Z,23.10
2018-05-09T17:54:58.316Z,23.00
2018-05-09T17:57:25.754Z,22.90
2018-05-09T17:59:53.184Z,22.80
2018-05-09T18:02:21.397Z,22.70
2018-05-09T18:04:48.843Z,22.70
2018-05-09T18:07:16.545Z,22.70
2018-05-09T18:09:43.990Z,22.60
2018-05-09T18:12:12.307Z,22.50
2018-05-09T18:14:39.821Z,22.50
2018-05-09T18:17:07.249Z,22.40
2018-05-09T18:19:34.683Z,22.40
2018-05-09T18:22:02.893Z,22.20
2018-05-09T18:24:30.328Z,22.20
2018-05-09T18:26:57.768Z,22.20
2018-05-09T18:29:25.967Z,22.20
2018-05-09T18:31:53.409Z,22.20
2018-05-09T18:34:20.849Z,22.30
2018-05-09T18:36:49.067Z,22.30
2018-05-09T18:39:16.535Z,22.30
2018-05-09T18:41:44.777Z,22.40
2018-05-09T18:44:12.221Z,22.40
2018-05-09T18:46:40.432Z,22.30
2018-05-09T18:49:07.874Z,22.30
2018-05-09T18:51:36.095Z,22.30
2018-05-09T18:54:03.570Z,22.30
2018-05-09T18:56:30.981Z,22.20
2018-05-09T18:58:58.425Z,22.20
2018-05-09T19:01:25.875Z,22.20
2018-05-09T19:03:53.321Z,22.00
2018-05-09T19:06:21.199Z,22.00
2018-05-09T19:08:49.166Z,21.90
2018-05-09T19:11:17.124Z,21.90
2018-05-09T19:13:44.903Z,21.80
2018-05-09T19:16:15.120Z,21.60
2018-05-09T19:18:43.542Z,21.60
2018-05-09T19:21:11.800Z,21.50
2018-05-09T19:23:41.300Z,21.50
2018-05-09T19:26:08.768Z,21.40
2018-05-09T19:28:36.652Z,21.30
2018-05-09T19:31:04.105Z,21.20
2018-05-09T19:33:32.648Z,21.20
2018-05-09T19:36:00.363Z,21.10
2018-05-09T19:38:28.831Z,20.90
2018-05-09T19:40:56.311Z,20.90
2018-05-09T19:43:24.978Z,20.80
2018-05-09T19:45:52.493Z,20.80
2018-05-09T19:48:20.194Z,20.80
2018-05-09T19:50:48.749Z,20.60
2018-05-09T19:53:16.565Z,20.60
2018-05-09T19:55:44.277Z,20.60
2018-05-09T19:58:12.928Z,20.50
2018-05-09T20:00:41.484Z,20.40
2018-05-09T20:03:10.844Z,20.30
2018-05-09T20:05:38.641Z,20.30
2018-05-09T20:08:06.981Z,20.20
2018-05-09T20:10:34.572Z,20.20
2018-05-09T20:13:02.029Z,20.20
2018-05-09T20:15:29.480Z,20.10
2018-05-09T20:17:56.919Z,20.10
2018-05-09T20:20:24.419Z,20.00
2018-05-09T20:22:54.683Z,20.00
2018-05-09T20:25:22.189Z,19.90
2018-05-09T20:27:49.628Z,19.80
2018-05-09T20:30:31.962Z,19.80
2018-05-09T20:32:59.421Z,19.70
2018-05-09T20:35:27.654Z,19.60
2018-05-09T20:37:55.092Z,19.60
2018-05-09T20:40:22.561Z,19.60
2018-05-09T20:42:50.043Z,19.50
2018-05-09T20:45:17.488Z,19.50
2018-05-09T20:47:44.976Z,19.50
2018-05-09T20:50:12.376Z,19.40
2018-05-09T20:52:39.831Z,19.40
2018-05-09T20:55:18.997Z,19.40
2018-05-09T20:57:46.440Z,19.30
2018-05-09T21:00:13.905Z,19.30
2018-05-09T21:02:42.113Z,19.30
2018-05-09T21:05:10.327Z,20.30
2018-05-09T21:07:49.606Z,19.20
2018-05-09T21:10:17.053Z,19.20
2018-05-09T21:12:44.493Z,19.10
2018-05-09T21:15:11.938Z,19.10
2018-05-09T21:17:39.377Z,19.10
2018-05-09T21:20:06.914Z,19.10
2018-05-09T21:22:34.284Z,19.00
2018-05-09T21:25:01.757Z,19.00
2018-05-09T21:27:29.188Z,19.00
2018-05-09T21:29:56.628Z,18.90
2018-05-09T21:32:24.849Z,18.80
2018-05-09T21:34:52.349Z,18.80
2018-05-09T21:37:19.793Z,18.80
2018-05-09T21:39:47.263Z,18.80
2018-05-09T21:42:14.699Z,18.70
2018-05-09T21:44:42.144Z,18.70
2018-05-09T21:47:10.352Z,18.60
2018-05-09T21:49:38.597Z,18.60
2018-05-09T21:52:06.020Z,18.50
2018-05-09T21:54:33.465Z,18.50
2018-05-09T21:57:00.902Z,18.40
2018-05-09T21:59:29.115Z,18.30
2018-05-09T22:01:56.557Z,18.30
2018-05-09T22:04:24.016Z,18.30
2018-05-09T22:06:51.452Z,18.30
2018-05-09T22:09:19.665Z,18.20
2018-05-09T22:11:47.121Z,18.20
2018-05-09T22:14:14.568Z,18.10
2018-05-09T22:16:42.012Z,18.10
2018-05-09T22:19:09.457Z,18.00
2018-05-09T22:21:37.673Z,17.80
2018-05-09T22:24:05.117Z,17.80
2018-05-09T22:26:32.582Z,17.80
2018-05-09T22:29:00.031Z,17.70
2018-05-09T22:31:27.492Z,17.70
2018-05-09T22:33:54.954Z,17.60
2018-05-09T22:36:22.396Z,17.60
2018-05-09T22:38:49.831Z,17.50
2018-05-09T22:41:17.290Z,17.50
2018-05-09T22:43:44.729Z,17.40
2018-05-09T22:46:12.934Z,17.30
2018-05-09T22:48:40.363Z,17.30
2018-05-09T22:51:08.603Z,17.30
2018-05-09T22:53:36.056Z,17.20
2018-05-09T22:56:03.511Z,17.20
2018-05-09T22:58:30.975Z,17.20
2018-05-09T23:00:58.418Z,17.10
2018-05-09T23:03:25.848Z,17.10
2018-05-09T23:05:53.303Z,17.00
2018-05-09T23:08:20.740Z,17.00
2018-05-09T23:10:48.983Z,16.90
2018-05-09T23:13:17.217Z,16.80
2018-05-09T23:15:44.665Z,16.80
2018-05-09T23:18:12.104Z,16.80
2018-05-09T23:20:39.556Z,16.70
2018-05-09T23:23:06.992Z,16.70
2018-05-09T23:25:35.208Z,16.60
2018-05-09T23:28:02.730Z,16.50
2018-05-09T23:30:30.961Z,16.50
2018-05-09T23:32:58.416Z,16.50
2018-05-09T23:35:25.860Z,16.50
2018-05-09T23:37:53.305Z,16.40
2018-05-09T23:40:20.741Z,16.40
2018-05-09T23:42:48.195Z,16.40
2018-05-09T23:45:16.414Z,16.30
2018-05-09T23:47:43.857Z,16.30
2018-05-09T23:50:11.313Z,16.30
2018-05-09T23:52:38.768Z,16.30
2018-05-09T23:55:06.205Z,16.20
2018-05-09T23:57:33.652Z,16.20
